createdAt,value
2022-12-27T00:00:11.347Z,0.80
2022-12-27T00:02:41.947Z,0.95
2022-12-27T00:05:10.899Z,0.90
2022-12-27T00:07:38.676Z,0.90
2022-12-27T00:10:09.157Z,1.00
2022-12-27T00:12:37.113Z,0.98
2022-12-27T00:15:06.090Z,1.00
2022-12-27T00:17:33.362Z,1.00
2022-12-27T00:20:05.396Z,1.27
2022-12-27T00:22:40.257Z,1.23
2022-12-27T00:25:09.036Z,1.00
2022-12-27T00:27:37.038Z,1.33
2022-12-27T00:30:06.520Z,1.10
2022-12-27T00:32:34.052Z,0.98
2022-12-27T00:35:01.553Z,1.17
2022-12-27T00:37:29.651Z,0.82
2022-12-27T00:39:57.166Z,0.80
2022-12-27T00:42:24.477Z,1.10
2022-12-27T00:44:51.829Z,1.15
2022-12-27T00:47:19.193Z,1.10
2022-12-27T00:49:46.722Z,1.00
2022-12-27T00:52:14.339Z,1.10
2022-12-27T00:54:41.653Z,1.05
2022-12-27T00:57:09.096Z,1.27
2022-12-27T00:59:36.303Z,1.00
2022-12-27T01:02:03.933Z,1.10
2022-12-27T01:04:31.427Z,1.25
2022-12-27T01:06:58.598Z,1.00
2022-12-27T01:09:26.262Z,1.35
2022-12-27T01:11:53.778Z,1.20
2022-12-27T01:14:21.447Z,0.75
2022-12-27T01:16:48.867Z,1.10
2022-12-27T01:19:16.406Z,1.25
2022-12-27T01:21:43.821Z,1.05
2022-12-27T01:24:12.647Z,1.38
2022-12-27T01:26:40.095Z,1.17
2022-12-27T01:29:07.411Z,1.30
2022-12-27T01:31:35.865Z,1.35
2022-12-27T01:34:03.125Z,1.25
2022-12-27T01:36:31.785Z,1.10
2022-12-27T01:39:01.185Z,1.20
2022-12-27T01:41:53.706Z,1.00
2022-12-27T01:44:39.547Z,1.10
2022-12-27T01:47:40.908Z,1.08
2022-12-27T01:50:37.221Z,1.15
2022-12-27T01:53:23.933Z,0.80
2022-12-27T01:56:30.238Z,1.20
2022-12-27T01:59:06.665Z,1.50
2022-12-27T02:01:46.533Z,1.20
2022-12-27T02:04:24.477Z,1.20
2022-12-27T02:06:53.035Z,1.00
2022-12-27T02:09:35.393Z,1.23
2022-12-27T02:12:08.128Z,1.35
2022-12-27T02:14:44.226Z,1.23
2022-12-27T02:17:38.355Z,1.20
2022-12-27T02:20:16.842Z,1.00
2022-12-27T02:24:13.542Z,0.88
2022-12-27T02:27:34.671Z,1.10
2022-12-27T02:30:08.641Z,2.78
2022-12-27T02:33:02.763Z,1.45
2022-12-27T02:35:50.830Z,1.42
2022-12-27T02:38:31.555Z,1.30
2022-12-27T02:41:25.115Z,1.02
2022-12-27T02:44:16.546Z,1.10
2022-12-27T02:47:11.287Z,0.90
2022-12-27T02:50:02.479Z,1.10
2022-12-27T02:53:29.711Z,1.00
2022-12-27T02:56:51.711Z,0.80
2022-12-27T03:00:25.921Z,1.60
2022-12-27T03:03:52.770Z,1.05
2022-12-27T03:06:43.030Z,1.13
2022-12-27T03:10:07.844Z,0.98
2022-12-27T03:13:59.109Z,1.10
2022-12-27T03:16:55.825Z,1.50
2022-12-27T03:20:07.029Z,1.20
2022-12-27T03:23:00.488Z,1.05
2022-12-27T03:25:32.592Z,1.15
2022-12-27T03:28:33.080Z,1.38
2022-12-27T03:31:38.373Z,1.73
2022-12-27T03:34:31.396Z,1.40
2022-12-27T03:37:47.343Z,1.50
2022-12-27T03:41:08.972Z,1.40
2022-12-27T03:43:41.466Z,1.15
2022-12-27T03:46:35.085Z,1.40
2022-12-27T03:49:39.547Z,1.20
2022-12-27T03:52:29.001Z,1.40
2022-12-27T03:54:57.874Z,1.50
2022-12-27T03:57:27.404Z,1.60
2022-12-27T03:59:55.156Z,1.25
2022-12-27T04:02:22.712Z,1.42
2022-12-27T04:04:50.612Z,1.50
2022-12-27T04:07:18.233Z,1.40
2022-12-27T04:10:04.344Z,1.40
2022-12-27T04:12:50.353Z,1.35
2022-12-27T04:15:36.550Z,1.40
2022-12-27T04:18:22.643Z,1.20
2022-12-27T04:21:08.755Z,1.20
2022-12-27T04:23:55.024Z,1.40
2022-12-27T04:26:41.215Z,1.17
2022-12-27T04:29:27.380Z,1.25
2022-12-27T04:32:13.324Z,1.55
2022-12-27T04:34:43.766Z,1.60
2022-12-27T04:37:18.094Z,1.90
2022-12-27T04:40:07.193Z,1.88
2022-12-27T04:42:58.321Z,1.85
2022-12-27T04:45:44.561Z,1.83
2022-12-27T04:48:35.021Z,1.63
2022-12-27T04:51:21.299Z,1.55
2022-12-27T04:54:07.317Z,1.60
2022-12-27T04:56:34.583Z,1.85
2022-12-27T04:59:20.709Z,1.70
2022-12-27T05:02:04.218Z,1.77
2022-12-27T05:04:37.010Z,2.08
2022-12-27T05:07:28.777Z,2.10
2022-12-27T05:10:16.754Z,1.88
2022-12-27T05:13:02.949Z,1.42
2022-12-27T05:15:30.373Z,1.98
2022-12-27T05:17:58.272Z,1.77
2022-12-27T05:20:25.536Z,1.70
2022-12-27T05:23:11.692Z,1.83
2022-12-27T05:25:46.802Z,1.85
2022-12-27T05:28:14.037Z,1.98
2022-12-27T05:30:44.510Z,1.90
2022-12-27T05:33:12.262Z,2.00
2022-12-27T05:35:40.567Z,1.90
2022-12-27T05:38:08.270Z,2.00
2022-12-27T05:40:35.956Z,2.00
2022-12-27T05:43:04.700Z,1.85
2022-12-27T05:45:33.451Z,2.10
2022-12-27T05:48:00.723Z,2.00
2022-12-27T05:50:28.342Z,2.10
2022-12-27T05:53:11.142Z,1.90
2022-12-27T05:55:38.518Z,2.38
2022-12-27T05:58:10.745Z,2.20
2022-12-27T06:00:38.016Z,2.53
2022-12-27T06:03:05.418Z,2.75
2022-12-27T06:05:32.840Z,2.40
2022-12-27T06:08:00.109Z,2.30
2022-12-27T06:10:27.345Z,2.13
2022-12-27T06:12:54.607Z,2.67
2022-12-27T06:15:21.954Z,2.40
2022-12-27T06:17:49.653Z,2.60
2022-12-27T06:20:17.506Z,2.70
2022-12-27T06:22:45.703Z,2.50
2022-12-27T06:25:14.429Z,2.83
2022-12-27T06:27:42.160Z,2.92
2022-12-27T06:30:12.136Z,3.15
2022-12-27T06:32:39.638Z,2.95
2022-12-27T06:35:07.728Z,3.22
2022-12-27T06:37:35.131Z,2.58
2022-12-27T06:40:02.710Z,2.92
2022-12-27T06:42:31.082Z,3.15
2022-12-27T06:44:58.269Z,2.58
2022-12-27T06:47:25.503Z,2.50
2022-12-27T06:49:52.933Z,2.40
2022-12-27T06:52:22.021Z,2.65
2022-12-27T06:54:49.424Z,2.80
2022-12-27T06:57:16.642Z,2.60
2022-12-27T06:59:46.933Z,2.80
2022-12-27T07:02:17.027Z,2.75
2022-12-27T07:04:45.545Z,2.92
2022-12-27T07:07:15.791Z,2.72
2022-12-27T07:09:43.457Z,3.45
2022-12-27T07:12:11.037Z,3.00
2022-12-27T07:14:38.490Z,3.25
2022-12-27T07:17:05.657Z,3.22
2022-12-27T07:19:32.862Z,3.38
2022-12-27T07:22:00.080Z,3.67
2022-12-27T07:24:27.403Z,3.75
2022-12-27T07:26:54.721Z,3.88
2022-12-27T07:29:21.986Z,3.67
2022-12-27T07:31:49.274Z,4.05
2022-12-27T07:34:16.498Z,4.30
2022-12-27T07:36:44.105Z,4.20
2022-12-27T07:39:11.497Z,4.28
2022-12-27T07:41:38.860Z,4.00
2022-12-27T07:44:07.725Z,3.72
2022-12-27T07:46:35.375Z,4.45
2022-12-27T07:49:02.865Z,4.05
2022-12-27T07:51:30.631Z,4.43
2022-12-27T07:53:58.087Z,4.10
2022-12-27T07:56:29.446Z,4.63
2022-12-27T07:59:00.911Z,3.95
2022-12-27T08:01:51.427Z,4.38
2022-12-27T08:04:18.777Z,4.20
2022-12-27T08:06:46.672Z,4.57
2022-12-27T08:09:20.968Z,5.25
2022-12-27T08:11:48.133Z,4.13
2022-12-27T08:14:15.310Z,6.25
2022-12-27T08:16:42.645Z,5.03
2022-12-27T08:19:09.889Z,4.85
2022-12-27T08:21:37.247Z,5.30
2022-12-27T08:24:05.286Z,4.97
2022-12-27T08:26:32.727Z,4.65
2022-12-27T08:29:00.094Z,4.97
2022-12-27T08:31:27.310Z,6.30
2022-12-27T08:33:58.652Z,4.65
2022-12-27T08:36:54.042Z,4.28
2022-12-27T08:39:13.567Z,4.35
2022-12-27T08:41:40.959Z,4.80
2022-12-27T08:44:10.533Z,5.25
2022-12-27T08:46:38.275Z,6.13
2022-12-27T08:49:06.192Z,4.28
2022-12-27T08:51:40.770Z,4.03
2022-12-27T08:54:09.888Z,4.47
2022-12-27T08:56:37.142Z,4.25
2022-12-27T08:59:04.623Z,4.10
2022-12-27T09:01:32.638Z,4.50
2022-12-27T09:04:00.039Z,4.75
2022-12-27T09:06:27.863Z,4.75
2022-12-27T09:08:56.505Z,4.90
2022-12-27T09:11:34.092Z,3.97
2022-12-27T09:14:05.557Z,4.00
2022-12-27T09:16:36.323Z,4.63
2022-12-27T09:19:04.455Z,4.32
2022-12-27T09:21:34.234Z,4.57
2022-12-27T09:24:01.485Z,4.43
2022-12-27T09:26:31.774Z,4.40
2022-12-27T09:29:00.426Z,4.70
2022-12-27T09:31:28.768Z,4.60
2022-12-27T09:33:58.024Z,4.70
2022-12-27T09:36:29.790Z,4.30
2022-12-27T09:38:58.908Z,5.30
2022-12-27T09:45:04.151Z,3.78
2022-12-27T09:47:55.397Z,3.50
2022-12-27T09:51:05.364Z,2.70
2022-12-27T09:54:26.186Z,3.17
2022-12-27T09:57:18.715Z,2.10
2022-12-27T09:59:49.833Z,2.60
2022-12-27T10:02:28.413Z,2.22
2022-12-27T10:05:19.574Z,2.97
2022-12-27T10:08:41.580Z,2.72
2022-12-27T10:11:48.410Z,2.30
2022-12-27T10:15:06.967Z,2.53
2022-12-27T10:17:59.447Z,2.60
2022-12-27T10:21:20.889Z,3.20
2022-12-27T10:24:00.921Z,2.97
2022-12-27T10:26:28.531Z,2.97
2022-12-27T10:29:13.927Z,2.92
2022-12-27T10:31:43.919Z,3.17
2022-12-27T10:34:17.217Z,2.50
2022-12-27T10:36:45.892Z,3.03
2022-12-27T10:39:32.149Z,3.05
2022-12-27T10:42:37.222Z,2.08
2022-12-27T10:45:33.793Z,2.03
2022-12-27T10:49:10.958Z,1.90
2022-12-27T10:51:23.529Z,2.13
2022-12-27T10:53:51.016Z,1.75
2022-12-27T10:56:21.394Z,2.10
2022-12-27T10:58:58.505Z,2.00
2022-12-27T11:01:30.285Z,1.80
2022-12-27T11:04:21.802Z,1.60
2022-12-27T11:07:04.159Z,1.95
2022-12-27T11:09:49.887Z,2.13
2022-12-27T11:12:32.197Z,1.95
2022-12-27T11:15:15.669Z,1.63
2022-12-27T11:17:46.835Z,2.05
2022-12-27T11:20:33.520Z,1.65
2022-12-27T11:23:09.899Z,1.70
2022-12-27T11:26:03.233Z,1.13
2022-12-27T11:28:50.913Z,1.80
2022-12-27T11:31:48.636Z,1.33
2022-12-27T11:34:31.478Z,1.42
2022-12-27T11:37:15.571Z,1.00
2022-12-27T11:40:24.853Z,1.30
2022-12-27T11:43:06.534Z,1.20
2022-12-27T11:45:43.992Z,1.77
2022-12-27T11:48:41.152Z,1.75
2022-12-27T11:51:41.280Z,1.10
2022-12-27T11:54:49.460Z,1.35
2022-12-27T11:57:42.811Z,1.20
2022-12-27T12:00:23.681Z,1.40
2022-12-27T12:03:27.214Z,1.20
2022-12-27T12:06:20.954Z,1.15
2022-12-27T12:09:15.991Z,1.30
2022-12-27T12:12:17.270Z,1.30
2022-12-27T12:15:23.788Z,1.30
2022-12-27T12:18:31.161Z,1.17
2022-12-27T12:21:25.697Z,1.60
2022-12-27T12:24:23.208Z,1.77
2022-12-27T12:27:26.442Z,1.63
2022-12-27T12:30:39.584Z,1.50
2022-12-27T12:33:42.661Z,0.88
2022-12-27T12:36:46.611Z,1.02
2022-12-27T12:40:02.303Z,0.90
2022-12-27T12:43:04.509Z,1.13
2022-12-27T12:45:55.930Z,1.15
2022-12-27T12:48:57.842Z,1.00
2022-12-27T12:52:00.819Z,1.10
2022-12-27T12:55:03.542Z,1.38
2022-12-27T12:58:56.255Z,1.33
2022-12-27T13:01:33.741Z,1.48
2022-12-27T13:04:36.011Z,1.30
2022-12-27T13:07:44.318Z,1.15
2022-12-27T13:10:45.644Z,1.85
2022-12-27T13:14:05.584Z,1.30
2022-12-27T13:17:01.012Z,1.40
2022-12-27T13:20:18.559Z,1.15
2022-12-27T13:23:23.078Z,1.38
2022-12-27T13:26:22.821Z,1.50
2022-12-27T13:29:28.952Z,1.30
2022-12-27T13:32:24.810Z,1.15
2022-12-27T13:35:20.205Z,1.10
2022-12-27T13:38:13.014Z,1.05
2022-12-27T13:41:28.023Z,1.95
2022-12-27T13:44:27.688Z,1.25
2022-12-27T13:47:48.675Z,2.03
2022-12-27T13:50:51.119Z,2.60
2022-12-27T13:53:59.985Z,2.78
2022-12-27T13:57:04.370Z,1.90
2022-12-27T14:00:14.707Z,2.08
2022-12-27T14:03:49.870Z,2.10
2022-12-27T14:06:36.042Z,2.40
2022-12-27T14:09:43.834Z,6.30
2022-12-27T14:12:45.526Z,1.90
2022-12-27T14:15:56.312Z,4.93
2022-12-27T14:19:11.792Z,2.72
2022-12-27T14:22:26.491Z,5.40
2022-12-27T14:25:25.003Z,3.00
2022-12-27T14:28:41.683Z,1.88
2022-12-27T14:31:35.330Z,1.58
2022-12-27T14:34:55.912Z,1.77
2022-12-27T14:38:11.912Z,2.05
2022-12-27T14:41:39.751Z,1.95
2022-12-27T14:44:35.376Z,1.70
2022-12-27T14:47:54.970Z,3.30
2022-12-27T14:50:28.249Z,2.75
2022-12-27T14:53:38.825Z,2.38
2022-12-27T14:57:03.828Z,2.67
2022-12-27T14:59:45.249Z,2.60
2022-12-27T15:02:44.655Z,4.57
2022-12-27T15:05:45.240Z,3.83
2022-12-27T15:08:36.059Z,2.28
2022-12-27T15:11:53.807Z,2.33
2022-12-27T15:15:08.712Z,1.92
2022-12-27T15:17:50.789Z,2.85
2022-12-27T15:21:13.158Z,3.38
2022-12-27T15:24:36.804Z,2.95
2022-12-27T15:27:34.366Z,3.30
2022-12-27T15:30:41.149Z,2.17
2022-12-27T15:34:05.452Z,3.20
2022-12-27T15:36:49.995Z,2.00
2022-12-27T15:39:37.941Z,2.15
2022-12-27T15:42:44.832Z,2.75
2022-12-27T15:46:18.189Z,2.90
2022-12-27T15:49:41.778Z,2.60
2022-12-27T15:52:32.392Z,2.58
2022-12-27T15:55:33.390Z,3.00
2022-12-27T15:58:17.704Z,2.55
2022-12-27T16:01:25.264Z,3.10
2022-12-27T16:03:55.274Z,3.10
2022-12-27T16:06:34.747Z,4.40
2022-12-27T16:09:25.345Z,3.40
2022-12-27T16:12:07.205Z,4.28
2022-12-27T16:14:42.987Z,4.90
2022-12-27T16:17:53.708Z,4.20
2022-12-27T16:20:23.577Z,5.53
2022-12-27T16:22:55.521Z,6.65
2022-12-27T16:25:30.899Z,6.68
2022-12-27T16:28:25.245Z,7.45
2022-12-27T16:30:57.120Z,6.03
2022-12-27T16:33:33.579Z,5.07
2022-12-27T16:36:20.365Z,8.50
2022-12-27T16:39:38.475Z,8.48
2022-12-27T16:42:08.518Z,6.63
2022-12-27T16:45:03.049Z,6.38
2022-12-27T16:48:02.241Z,5.90
2022-12-27T16:50:52.596Z,6.82
2022-12-27T16:54:04.428Z,7.72
2022-12-27T16:56:44.748Z,7.88
2022-12-27T17:00:00.291Z,8.98
2022-12-27T17:02:40.282Z,9.27
2022-12-27T17:05:16.729Z,9.18
2022-12-27T17:07:53.103Z,9.27
2022-12-27T17:10:31.709Z,10.13
2022-12-27T17:13:18.624Z,8.98
2022-12-27T17:15:53.038Z,8.90
2022-12-27T17:18:31.568Z,10.13
2022-12-27T17:21:09.005Z,9.98
2022-12-27T17:23:46.163Z,8.95
2022-12-27T17:26:51.263Z,7.03
2022-12-27T17:30:04.712Z,11.63
2022-12-27T17:33:16.840Z,10.88
2022-12-27T17:36:04.463Z,10.77
2022-12-27T17:39:11.110Z,10.73
2022-12-27T17:42:46.913Z,13.35
2022-12-27T17:45:41.744Z,8.30
2022-12-27T17:48:33.686Z,7.57
2022-12-27T17:51:17.630Z,8.70
2022-12-27T17:54:10.853Z,8.07
2022-12-27T17:57:19.762Z,10.35
2022-12-27T17:59:50.684Z,10.60
2022-12-27T18:02:31.802Z,9.52
2022-12-27T18:05:08.455Z,12.02
2022-12-27T18:07:36.359Z,11.32
2022-12-27T18:10:26.223Z,11.93
2022-12-27T18:12:59.924Z,10.70
2022-12-27T18:15:34.091Z,9.63
2022-12-27T18:18:08.813Z,10.82
2022-12-27T18:20:40.875Z,9.82
2022-12-27T18:23:21.549Z,9.05
2022-12-27T18:26:13.148Z,9.23
2022-12-27T18:28:42.951Z,8.48
2022-12-27T18:31:35.634Z,9.07
2022-12-27T18:34:29.414Z,7.80
2022-12-27T18:37:07.925Z,8.20
2022-12-27T18:40:01.485Z,8.10
2022-12-27T18:42:44.690Z,7.93
2022-12-27T18:45:30.811Z,8.48
2022-12-27T18:48:01.656Z,8.57
2022-12-27T18:50:34.994Z,9.80
2022-12-27T18:53:37.847Z,11.57
2022-12-27T18:56:32.633Z,16.65
2022-12-27T18:59:26.221Z,21.55
2022-12-27T19:01:58.794Z,16.38
2022-12-27T19:04:33.768Z,13.30
2022-12-27T19:07:01.084Z,13.15
2022-12-27T19:09:54.229Z,13.52
2022-12-27T19:12:38.862Z,14.05
2022-12-27T19:15:24.833Z,15.65
2022-12-27T19:18:09.859Z,13.77
2022-12-27T19:20:37.484Z,11.02
2022-12-27T19:23:39.379Z,8.77
2022-12-27T19:26:32.993Z,9.82
2022-12-27T19:29:17.186Z,11.35
2022-12-27T19:32:02.229Z,12.32
2022-12-27T19:34:46.870Z,17.90
2022-12-27T19:37:15.156Z,11.75
2022-12-27T19:39:46.848Z,12.25
2022-12-27T19:42:33.222Z,13.27
2022-12-27T19:45:00.436Z,14.75
2022-12-27T19:47:28.226Z,14.82
2022-12-27T19:49:55.721Z,12.05
2022-12-27T19:52:27.298Z,13.65
2022-12-27T19:55:05.858Z,12.82
2022-12-27T19:57:33.528Z,11.95
2022-12-27T20:00:04.114Z,11.82
2022-12-27T20:02:34.306Z,13.43
2022-12-27T20:05:01.832Z,10.77
2022-12-27T20:07:29.450Z,12.18
2022-12-27T20:09:57.024Z,9.82
2022-12-27T20:12:24.396Z,9.88
2022-12-27T20:14:52.127Z,11.05
2022-12-27T20:17:19.693Z,14.98
2022-12-27T20:19:47.013Z,10.93
2022-12-27T20:22:14.491Z,11.05
2022-12-27T20:24:42.302Z,13.20
2022-12-27T20:27:09.489Z,19.67
2022-12-27T20:29:36.883Z,14.77
2022-12-27T20:32:04.575Z,19.05
2022-12-27T20:34:31.935Z,18.48
2022-12-27T20:37:00.325Z,13.45
2022-12-27T20:39:27.775Z,11.23
2022-12-27T20:41:56.293Z,13.38
2022-12-27T20:44:23.870Z,11.50
2022-12-27T20:46:51.437Z,11.27
2022-12-27T20:49:19.489Z,11.80
2022-12-27T20:51:47.224Z,12.00
2022-12-27T20:54:16.404Z,11.38
2022-12-27T20:56:44.203Z,11.80
2022-12-27T20:59:11.454Z,11.77
2022-12-27T21:01:42.301Z,10.82
2022-12-27T21:04:10.826Z,9.57
2022-12-27T21:06:43.667Z,10.60
2022-12-27T21:09:11.000Z,11.77
2022-12-27T21:11:38.577Z,11.68
2022-12-27T21:14:06.237Z,9.00
2022-12-27T21:16:35.647Z,9.80
2022-12-27T21:19:04.912Z,9.77
2022-12-27T21:21:38.059Z,8.98
2022-12-27T21:24:08.899Z,10.80
2022-12-27T21:26:39.344Z,11.13
2022-12-27T21:31:54.783Z,10.38
2022-12-27T21:34:22.208Z,10.93
2022-12-27T21:36:54.328Z,10.90
2022-12-27T21:39:21.581Z,11.13
2022-12-27T21:41:48.858Z,10.82
2022-12-27T21:44:16.578Z,9.85
2022-12-27T21:46:48.458Z,10.07
2022-12-27T21:49:41.483Z,10.70
2022-12-27T21:52:08.914Z,10.85
2022-12-27T21:54:36.271Z,10.20
2022-12-27T21:57:03.984Z,10.43
2022-12-27T21:59:31.537Z,10.27
2022-12-27T22:01:59.023Z,10.73
2022-12-27T22:04:26.492Z,10.57
2022-12-27T22:06:53.877Z,10.82
2022-12-27T22:09:21.187Z,11.23
2022-12-27T22:11:48.823Z,10.98
2022-12-27T22:14:20.583Z,10.85
2022-12-27T22:16:50.938Z,11.45
2022-12-27T22:19:18.126Z,11.45
2022-12-27T22:21:45.483Z,11.23
2022-12-27T22:24:21.924Z,11.35
2022-12-27T22:26:50.134Z,12.13
2022-12-27T22:29:17.915Z,13.13
2022-12-27T22:31:45.289Z,11.90
2022-12-27T22:34:12.514Z,12.20
2022-12-27T22:36:39.951Z,12.00
2022-12-27T22:39:07.311Z,11.15
2022-12-27T22:41:37.595Z,12.32
2022-12-27T22:49:49.307Z,14.10
2022-12-27T22:52:16.705Z,11.40
2022-12-27T22:55:04.233Z,11.38
2022-12-27T22:57:31.420Z,11.98
2022-12-27T22:59:58.645Z,11.65
2022-12-27T23:02:26.077Z,11.85
2022-12-27T23:04:53.501Z,10.68
2022-12-27T23:07:21.168Z,10.82
2022-12-27T23:10:10.282Z,10.85
2022-12-27T23:12:37.716Z,10.88
2022-12-27T23:15:05.963Z,11.13
2022-12-27T23:17:33.339Z,11.80
2022-12-27T23:20:00.577Z,10.63
2022-12-27T23:22:27.777Z,10.45
2022-12-27T23:24:55.010Z,10.38
2022-12-27T23:27:22.260Z,10.82
2022-12-27T23:29:49.532Z,9.75
2022-12-27T23:32:16.947Z,10.00
2022-12-27T23:34:44.308Z,10.63
2022-12-27T23:37:11.462Z,11.68
2022-12-27T23:39:41.173Z,11.18
2022-12-27T23:42:08.386Z,10.95
2022-12-27T23:44:35.882Z,11.30
2022-12-27T23:47:05.753Z,10.50
2022-12-27T23:49:34.269Z,10.95
2022-12-27T23:52:04.972Z,11.35
2022-12-27T23:54:32.240Z,10.82
2022-12-27T23:57:19.507Z,11.18
2022-12-27T23:59:46.643Z,11.10
